Time;durP1;ratioP1;P1;durP2;ratioP2;P2;SDS_P1;SDS_P2;PMS_P1;PMS_P2;Temp;Humidity;BMP_temperature;BMP_pressure;BME280_temperature;BME280_humidity;BME280_pressure;Samples;Min_cycle;Max_cycle;Signal;HPM_P1;HPM_P2
2024/02/06 00:01:09;;;;;;;16.17;3.88;;;9.90;99.90;;;;;;5019840;28;20421;-81
2024/02/06 00:03:34;;;;;;;12.77;4.05;;;9.90;99.90;;;;;;5003298;28;20528;-80
2024/02/06 00:06:00;;;;;;;13.68;5.53;;;10.00;99.90;;;;;;5019331;28;20042;-81
2024/02/06 00:08:26;;;;;;;13.45;4.68;;;10.00;99.90;;;;;;5019842;28;20041;-81
2024/02/06 00:10:51;;;;;;;15.68;4.25;;;9.90;99.90;;;;;;5037117;28;20113;-80
2024/02/06 00:13:17;;;;;;;10.63;3.95;;;10.00;99.90;;;;;;5019816;28;20064;-80
2024/02/06 00:15:43;;;;;;;11.85;4.68;;;9.90;99.90;;;;;;5019586;28;20041;-80
2024/02/06 00:18:10;;;;;;;15.85;4.53;;;9.90;99.90;;;;;;5036825;28;20106;-80
2024/02/06 00:20:35;;;;;;;13.13;4.25;;;10.00;99.90;;;;;;5019110;28;20045;-80
2024/02/06 00:23:01;;;;;;;12.48;4.80;;;9.90;99.90;;;;;;5037622;28;20045;-80
2024/02/06 00:25:27;;;;;;;20.10;5.25;;;9.90;99.90;;;;;;5019135;28;20374;-81
2024/02/06 00:27:52;;;;;;;17.98;5.28;;;9.90;99.90;;;;;;5019166;28;20065;-81
2024/02/06 00:30:18;;;;;;;15.35;4.80;;;9.90;99.90;;;;;;5003195;28;20033;-81
2024/02/06 00:32:44;;;;;;;12.13;3.45;;;9.90;99.90;;;;;;5036380;28;20595;-81
2024/02/06 00:35:11;;;;;;;14.35;4.50;;;10.00;99.90;;;;;;5019493;28;20043;-81
2024/02/06 00:37:37;;;;;;;13.95;4.22;;;10.00;99.90;;;;;;5018591;28;20041;-81
2024/02/06 00:40:03;;;;;;;13.20;4.88;;;10.00;99.90;;;;;;5019129;28;20041;-81
2024/02/06 00:42:30;;;;;;;11.30;3.40;;;10.00;99.90;;;;;;5002408;28;20129;-81
2024/02/06 00:44:56;;;;;;;19.08;4.57;;;9.90;99.90;;;;;;5019053;28;20631;-80
2024/02/06 00:47:21;;;;;;;11.63;4.25;;;9.90;99.90;;;;;;5002203;28;20033;-80
2024/02/06 00:49:47;;;;;;;15.73;4.15;;;9.90;99.90;;;;;;5035291;28;20069;-80
2024/02/06 00:52:13;;;;;;;11.10;4.25;;;9.90;99.90;;;;;;5036469;28;20112;-81
2024/02/06 00:54:39;;;;;;;10.95;3.88;;;9.90;99.90;;;;;;5036507;28;20040;-80
2024/02/06 00:57:04;;;;;;;10.13;3.15;;;9.90;99.90;;;;;;5018953;28;20087;-80
2024/02/06 00:59:31;;;;;;;16.17;4.25;;;9.90;99.90;;;;;;5036707;28;20041;-80
2024/02/06 01:01:59;;;;;;;12.63;4.25;;;9.90;99.90;;;;;;5018410;28;20052;-81
2024/02/06 01:04:24;;;;;;;13.02;4.75;;;9.90;99.90;;;;;;5002057;28;20041;-80
2024/02/06 01:06:51;;;;;;;17.15;4.68;;;10.00;99.90;;;;;;5018254;28;20033;-80
2024/02/06 01:09:18;;;;;;;16.17;4.13;;;9.90;99.90;;;;;;5035945;28;20038;-80
2024/02/06 01:11:43;;;;;;;9.60;3.80;;;9.90;99.90;;;;;;5018362;28;20092;-81
2024/02/06 01:14:09;;;;;;;13.32;3.88;;;9.90;99.90;;;;;;5018474;28;20045;-80
2024/02/06 01:16:35;;;;;;;12.65;4.50;;;9.90;99.90;;;;;;5036014;28;20555;-80
2024/02/06 01:19:01;;;;;;;12.43;3.75;;;10.00;99.90;;;;;;5017958;28;20060;-79
2024/02/06 01:21:26;;;;;;;16.73;4.88;;;10.00;99.90;;;;;;5036108;28;20041;-80
2024/02/06 01:23:52;;;;;;;14.57;4.03;;;9.90;99.90;;;;;;5017583;28;20409;-79
2024/02/06 01:26:17;;;;;;;12.68;3.70;;;9.90;99.90;;;;;;5035765;28;20068;-81
2024/02/06 01:28:43;;;;;;;14.10;3.88;;;10.00;99.90;;;;;;5018224;28;20405;-81
2024/02/06 01:31:15;;;;;;;13.57;3.97;;;10.00;99.90;;;;;;5035548;28;20033;-81
2024/02/06 01:33:40;;;;;;;17.48;4.65;;;10.00;99.90;;;;;;5036021;28;20394;-81
2024/02/06 01:36:07;;;;;;;16.30;3.95;;;10.00;99.90;;;;;;5035537;28;20052;-81
2024/02/06 01:38:33;;;;;;;14.90;3.88;;;10.00;99.90;;;;;;5035620;28;20037;-81
2024/02/06 01:40:59;;;;;;;20.00;5.03;;;10.00;99.90;;;;;;5017950;28;20045;-80
2024/02/06 01:43:24;;;;;;;13.85;3.97;;;10.00;99.90;;;;;;5035809;28;20417;-80
2024/02/06 01:45:53;;;;;;;16.00;4.32;;;10.00;99.90;;;;;;5018116;28;20467;-81
2024/02/06 01:48:20;;;;;;;13.82;4.47;;;10.00;99.90;;;;;;5035500;28;20404;-80
2024/02/06 01:50:47;;;;;;;13.70;4.25;;;9.90;99.90;;;;;;5018296;28;20052;-80
2024/02/06 01:53:14;;;;;;;15.18;5.45;;;10.00;99.90;;;;;;5017501;28;20072;-80
2024/02/06 01:55:41;;;;;;;13.18;4.30;;;10.00;99.90;;;;;;5035546;28;20045;-81
2024/02/06 01:58:07;;;;;;;12.98;4.72;;;10.00;99.90;;;;;;5034931;28;20045;-80
2024/02/06 02:00:34;;;;;;;18.98;5.60;;;10.00;99.90;;;;;;5035521;28;20088;-80
2024/02/06 02:03:02;;;;;;;21.60;5.38;;;10.00;99.90;;;;;;5017197;28;20052;-80
2024/02/06 02:05:29;;;;;;;16.17;5.10;;;10.00;99.90;;;;;;5017671;28;20120;-81
2024/02/06 02:07:54;;;;;;;15.88;5.28;;;10.00;99.90;;;;;;5017420;28;20045;-79
2024/02/06 02:10:20;;;;;;;31.20;7.82;;;9.90;99.90;;;;;;5037662;28;20061;-80
2024/02/06 02:12:46;;;;;;;19.20;3.97;;;9.90;99.90;;;;;;5038130;28;20045;-80
2024/02/06 02:15:13;;;;;;;18.70;3.90;;;10.00;99.90;;;;;;5038606;28;20060;-80
2024/02/06 02:17:39;;;;;;;14.32;4.25;;;10.00;99.90;;;;;;5019196;28;20124;-80
2024/02/06 02:20:06;;;;;;;17.55;4.70;;;10.00;99.90;;;;;;5018134;28;20481;-79
2024/02/06 02:22:31;;;;;;;15.30;4.57;;;10.00;99.90;;;;;;5018402;28;20164;-81
2024/02/06 02:24:58;;;;;;;17.40;5.75;;;10.00;99.90;;;;;;5001334;28;20072;-80
2024/02/06 02:27:24;;;;;;;21.00;5.88;;;10.00;99.90;;;;;;5017817;28;20045;-80
2024/02/06 02:29:53;;;;;;;9.60;4.43;;;10.00;99.90;;;;;;5017697;28;20113;-81
2024/02/06 02:32:19;;;;;;;28.35;5.05;;;10.00;99.90;;;;;;5017887;28;20044;-80
2024/02/06 02:34:48;;;;;;;22.17;5.43;;;10.00;99.90;;;;;;5017758;28;20521;-81
2024/02/06 02:37:14;;;;;;;21.75;5.15;;;10.00;99.90;;;;;;5017891;28;20049;-80
2024/02/06 02:39:40;;;;;;;18.80;5.60;;;10.00;99.90;;;;;;5017988;28;20037;-80
2024/02/06 02:42:06;;;;;;;16.98;5.88;;;10.00;99.90;;;;;;5017442;28;20073;-80
2024/02/06 02:44:31;;;;;;;15.75;5.78;;;9.90;99.90;;;;;;5017493;28;20072;-80
2024/02/06 02:46:57;;;;;;;17.70;5.22;;;10.00;99.90;;;;;;5017899;28;20033;-80
2024/02/06 02:49:22;;;;;;;16.38;5.07;;;10.10;99.90;;;;;;5017067;28;20556;-80
2024/02/06 02:51:53;;;;;;;18.50;5.47;;;10.00;99.90;;;;;;5000629;28;20417;-80
2024/02/06 02:54:19;;;;;;;18.38;5.18;;;10.00;99.90;;;;;;5034912;28;20179;-81
2024/02/06 02:56:45;;;;;;;24.95;6.40;;;10.00;99.90;;;;;;5018025;28;20638;-79
2024/02/06 02:59:11;;;;;;;19.23;5.63;;;10.00;99.90;;;;;;5017074;28;20042;-80
2024/02/06 03:01:37;;;;;;;18.08;5.47;;;10.00;99.90;;;;;;5017167;28;20088;-81
2024/02/06 03:04:02;;;;;;;22.25;5.05;;;10.10;99.90;;;;;;5027701;28;20402;-80
2024/02/06 03:06:28;;;;;;;23.95;6.13;;;10.10;99.90;;;;;;5026342;28;20088;-80
2024/02/06 03:08:54;;;;;;;31.85;6.20;;;10.10;99.90;;;;;;5034176;28;20030;-80
2024/02/06 03:11:20;;;;;;;21.02;5.40;;;10.10;99.90;;;;;;5034640;28;20063;-80
2024/02/06 03:13:46;;;;;;;22.00;6.40;;;10.00;99.90;;;;;;5020316;28;20159;-80
2024/02/06 03:16:12;;;;;;;22.88;5.88;;;10.00;99.90;;;;;;5003665;28;20523;-80
2024/02/06 03:18:38;;;;;;;19.13;4.90;;;10.10;99.90;;;;;;5037627;28;20037;-80
2024/02/06 03:21:04;;;;;;;19.65;5.97;;;10.10;99.90;;;;;;5037988;28;20551;-80
2024/02/06 03:23:30;;;;;;;26.73;5.43;;;10.00;99.90;;;;;;5019491;28;20046;-80
2024/02/06 03:25:56;;;;;;;22.90;5.32;;;10.10;99.90;;;;;;5002702;28;20474;-80
2024/02/06 03:28:22;;;;;;;24.73;4.82;;;10.00;99.90;;;;;;5019981;28;20042;-80
2024/02/06 03:30:47;;;;;;;26.60;6.70;;;10.10;99.90;;;;;;5019468;28;20073;-81
2024/02/06 03:33:13;;;;;;;23.00;5.18;;;10.10;99.90;;;;;;5003351;28;20485;-80
2024/02/06 03:35:39;;;;;;;27.00;5.78;;;10.00;99.90;;;;;;5019479;28;20068;-80
2024/02/06 03:38:05;;;;;;;19.80;5.32;;;10.10;99.90;;;;;;5019148;28;20040;-80
2024/02/06 03:40:32;;;;;;;21.45;5.72;;;10.10;99.90;;;;;;5037660;28;20112;-81
2024/02/06 03:42:58;;;;;;;19.90;6.35;;;10.00;99.90;;;;;;5037137;28;20034;-80
2024/02/06 03:45:24;;;;;;;16.20;3.97;;;10.00;99.90;;;;;;5037741;28;20433;-80
2024/02/06 03:47:50;;;;;;;27.15;6.53;;;10.00;99.90;;;;;;5003191;28;20083;-80
2024/02/06 03:50:15;;;;;;;22.65;4.95;;;10.00;99.90;;;;;;5019125;28;20440;-80
2024/02/06 03:52:41;;;;;;;20.20;5.55;;;10.10;99.90;;;;;;5037288;28;20033;-80
2024/02/06 03:55:07;;;;;;;23.08;7.80;;;10.00;99.90;;;;;;5019793;28;20053;-80
2024/02/06 03:57:33;;;;;;;22.70;5.35;;;10.10;99.90;;;;;;5037191;28;20064;-80
2024/02/06 03:59:59;;;;;;;25.75;5.47;;;10.10;99.90;;;;;;5002934;28;20064;-80
2024/02/06 04:02:25;;;;;;;20.98;5.63;;;10.10;99.90;;;;;;5018917;28;20038;-80
2024/02/06 04:04:50;;;;;;;22.45;6.18;;;10.10;99.90;;;;;;5036848;28;20033;-80
2024/02/06 04:07:17;;;;;;;13.05;4.85;;;10.10;99.90;;;;;;5036476;28;20069;-80
2024/02/06 04:09:43;;;;;;;20.88;6.38;;;10.10;99.90;;;;;;5002600;28;20091;-81
2024/02/06 04:12:08;;;;;;;20.33;4.68;;;10.10;99.90;;;;;;5018812;28;20037;-80
2024/02/06 04:14:35;;;;;;;21.13;4.70;;;10.10;99.90;;;;;;5019082;28;20049;-80
2024/02/06 04:17:01;;;;;;;20.52;4.85;;;10.10;99.90;;;;;;5036361;28;20045;-81
2024/02/06 04:19:26;;;;;;;25.38;5.38;;;10.10;99.90;;;;;;5018270;28;20042;-79
2024/02/06 04:21:52;;;;;;;17.80;5.25;;;10.00;99.90;;;;;;5002039;28;20033;-81
2024/02/06 04:24:18;;;;;;;11.50;4.70;;;10.00;99.90;;;;;;5036445;28;20064;-80
2024/02/06 04:26:45;;;;;;;13.48;4.38;;;10.00;99.90;;;;;;5037046;28;20400;-80
2024/02/06 04:29:11;;;;;;;15.93;4.60;;;10.00;99.90;;;;;;5018540;28;20635;-80
2024/02/06 04:31:37;;;;;;;18.35;5.43;;;10.00;99.90;;;;;;5018824;28;20445;-80
2024/02/06 04:34:02;;;;;;;16.92;4.25;;;10.00;99.90;;;;;;5035706;28;20049;-80
2024/02/06 04:36:28;;;;;;;19.13;4.97;;;10.00;99.90;;;;;;5018549;28;20041;-80
2024/02/06 04:38:53;;;;;;;24.48;4.47;;;10.00;99.90;;;;;;5017968;28;20104;-80
2024/02/06 04:41:19;;;;;;;22.10;4.50;;;10.00;99.90;;;;;;5018129;28;20037;-80
2024/02/06 04:43:45;;;;;;;12.00;3.63;;;10.10;99.90;;;;;;5035917;28;20041;-80
2024/02/06 04:46:10;;;;;;;28.50;5.40;;;10.10;99.90;;;;;;5018539;28;20121;-81
2024/02/06 04:48:36;;;;;;;25.73;7.07;;;10.10;99.90;;;;;;5035917;28;20516;-81
2024/02/06 04:51:01;;;;;;;18.70;4.70;;;10.00;99.90;;;;;;5017713;28;20099;-80
2024/02/06 04:53:28;;;;;;;18.58;4.28;;;10.00;99.90;;;;;;5001762;28;20128;-80
2024/02/06 04:55:53;;;;;;;18.55;5.82;;;10.00;99.90;;;;;;5019026;28;20078;-79
2024/02/06 04:58:20;;;;;;;20.33;5.78;;;10.00;99.90;;;;;;5047192;28;20582;-81
2024/02/06 05:00:45;;;;;;;20.33;4.72;;;10.00;99.90;;;;;;5030346;28;20079;-80
2024/02/06 05:03:11;;;;;;;17.92;4.78;;;10.20;99.90;;;;;;5031411;28;20061;-80
2024/02/06 05:05:37;;;;;;;16.55;4.13;;;10.20;99.90;;;;;;5032331;28;20043;-79
2024/02/06 05:08:03;;;;;;;15.93;4.10;;;10.20;99.90;;;;;;5016256;28;20456;-80
2024/02/06 05:10:28;;;;;;;18.55;4.30;;;10.10;99.90;;;;;;5032691;28;20041;-79
2024/02/06 05:12:54;;;;;;;17.77;3.88;;;10.20;99.90;;;;;;5041354;28;20041;-80
2024/02/06 05:15:20;;;;;;;13.98;3.47;;;10.20;99.90;;;;;;5020487;28;20041;-79
2024/02/06 05:17:46;;;;;;;21.73;5.47;;;10.20;99.90;;;;;;5019848;28;20037;-79
2024/02/06 05:20:12;;;;;;;14.75;3.08;;;10.20;99.90;;;;;;5037292;28;20119;-80
2024/02/06 05:22:38;;;;;;;15.48;3.90;;;10.30;99.90;;;;;;5037250;28;20041;-80
2024/02/06 05:25:05;;;;;;;17.80;4.68;;;10.30;99.90;;;;;;5037211;28;20034;-79
2024/02/06 05:27:31;;;;;;;15.10;4.82;;;10.20;99.90;;;;;;5036592;28;20450;-80
2024/02/06 05:29:57;;;;;;;19.58;4.25;;;10.10;99.90;;;;;;5018839;28;20129;-80
2024/02/06 05:32:22;;;;;;;11.27;3.50;;;10.30;99.90;;;;;;5018483;28;20485;-80
2024/02/06 05:34:53;;;;;;;24.27;4.75;;;10.30;99.90;;;;;;5035454;28;20405;-80
2024/02/06 05:37:19;;;;;;;18.15;4.00;;;10.30;99.90;;;;;;5018795;28;20041;-80
2024/02/06 05:39:44;;;;;;;16.92;3.83;;;10.30;99.90;;;;;;5036735;28;20041;-80
2024/02/06 05:42:11;;;;;;;18.20;3.92;;;10.30;99.90;;;;;;5035902;28;20030;-80
2024/02/06 05:44:38;;;;;;;22.73;4.30;;;10.20;99.90;;;;;;5035963;28;20081;-80
2024/02/06 05:47:04;;;;;;;21.88;4.82;;;10.30;99.90;;;;;;5019148;28;20060;-80
2024/02/06 05:49:29;;;;;;;18.08;5.65;;;10.30;99.90;;;;;;5017527;28;20420;-80
2024/02/06 05:51:55;;;;;;;16.67;3.67;;;10.30;99.90;;;;;;5018322;28;20041;-79
2024/02/06 05:54:21;;;;;;;15.93;4.15;;;10.30;99.90;;;;;;5017631;28;20073;-80
2024/02/06 05:56:47;;;;;;;12.05;3.25;;;10.30;99.90;;;;;;5018694;28;20067;-81
2024/02/06 05:59:12;;;;;;;15.45;3.92;;;10.30;99.90;;;;;;5001827;28;20033;-81
2024/02/06 06:01:38;;;;;;;21.40;4.10;;;10.30;99.90;;;;;;5017519;28;20083;-81
2024/02/06 06:04:03;;;;;;;14.55;3.78;;;10.30;99.90;;;;;;5018454;28;20033;-80
2024/02/06 06:06:29;;;;;;;9.98;3.10;;;10.30;99.90;;;;;;5018228;28;20100;-80
2024/02/06 06:08:55;;;;;;;19.08;3.65;;;10.30;99.90;;;;;;5017811;28;20041;-81
2024/02/06 06:11:21;;;;;;;18.88;4.40;;;10.30;99.90;;;;;;5035523;28;20041;-81
2024/02/06 06:13:46;;;;;;;14.75;3.72;;;10.20;99.90;;;;;;5017360;28;20501;-80
2024/02/06 06:16:12;;;;;;;17.80;4.13;;;10.30;99.90;;;;;;5035159;28;20413;-81
2024/02/06 06:18:38;;;;;;;14.05;5.22;;;10.30;99.90;;;;;;5019101;28;20042;-81
2024/02/06 06:21:03;;;;;;;16.15;3.90;;;10.40;99.90;;;;;;5019685;28;20037;-81
2024/02/06 06:23:29;;;;;;;17.05;4.10;;;10.30;99.90;;;;;;5002835;28;20060;-81
2024/02/06 06:25:56;;;;;;;17.05;5.03;;;10.30;99.90;;;;;;5019288;28;20076;-80
2024/02/06 06:28:22;;;;;;;14.88;3.65;;;10.30;99.90;;;;;;5035796;28;20044;-80
2024/02/06 06:30:47;;;;;;;17.05;3.53;;;10.30;99.90;;;;;;5035554;28;20037;-80
2024/02/06 06:33:13;;;;;;;17.05;4.13;;;10.30;99.90;;;;;;5036462;28;20033;-81
2024/02/06 06:35:39;;;;;;;16.75;4.57;;;10.30;99.90;;;;;;5018240;28;20136;-81
2024/02/06 06:38:05;;;;;;;22.58;5.10;;;10.40;99.90;;;;;;5035959;28;20080;-81
2024/02/06 06:40:30;;;;;;;17.70;4.30;;;10.30;99.90;;;;;;5036217;28;20122;-81
2024/02/06 06:42:56;;;;;;;17.45;5.50;;;10.30;99.90;;;;;;5018146;28;20723;-81
2024/02/06 06:45:21;;;;;;;14.93;4.68;;;10.30;99.90;;;;;;5018666;28;20037;-80
2024/02/06 06:47:47;;;;;;;24.98;4.80;;;10.30;99.90;;;;;;5003775;28;20540;-81
2024/02/06 06:50:13;;;;;;;12.50;3.88;;;10.40;99.90;;;;;;5021930;28;20037;-79
2024/02/06 06:52:42;;;;;;;16.05;4.57;;;10.30;99.90;;;;;;5021792;28;20048;-80
2024/02/06 06:55:08;;;;;;;19.98;4.60;;;10.40;99.90;;;;;;5021479;28;20045;-81
2024/02/06 06:57:35;;;;;;;24.60;6.43;;;10.30;99.90;;;;;;5038963;28;20044;-81
2024/02/06 07:00:02;;;;;;;18.88;4.78;;;10.40;99.90;;;;;;5020436;28;20496;-81
2024/02/06 07:02:28;;;;;;;16.83;5.35;;;10.40;99.90;;;;;;5021272;28;20041;-81
2024/02/06 07:04:56;;;;;;;15.48;3.60;;;10.40;99.90;;;;;;5020847;28;20529;-81
2024/02/06 07:07:21;;;;;;;14.80;3.67;;;10.40;99.90;;;;;;5021292;28;20060;-80
2024/02/06 07:09:47;;;;;;;20.67;4.10;;;10.40;99.90;;;;;;5020854;28;20041;-81
2024/02/06 07:12:12;;;;;;;16.67;3.83;;;10.40;99.90;;;;;;5038460;28;20473;-81
2024/02/06 07:14:38;;;;;;;16.98;4.65;;;10.40;99.90;;;;;;5038801;28;20559;-80
2024/02/06 07:17:05;;;;;;;18.95;5.25;;;10.40;99.90;;;;;;5020453;28;20475;-80
2024/02/06 07:19:32;;;;;;;17.98;3.65;;;10.40;99.90;;;;;;5019924;28;20045;-81
2024/02/06 07:21:58;;;;;;;16.05;4.55;;;10.40;99.90;;;;;;5038209;28;20467;-81
2024/02/06 07:24:25;;;;;;;22.17;4.40;;;10.40;99.90;;;;;;5020687;28;20056;-81
2024/02/06 07:26:51;;;;;;;13.82;4.25;;;10.30;99.90;;;;;;5021084;28;20044;-81
2024/02/06 07:29:17;;;;;;;14.50;3.67;;;10.30;99.90;;;;;;5019881;28;20044;-80
2024/02/06 07:31:43;;;;;;;17.50;3.70;;;10.30;99.90;;;;;;5004092;28;20090;-81
2024/02/06 07:34:09;;;;;;;15.88;3.85;;;10.30;99.90;;;;;;5038259;28;20124;-81
2024/02/06 07:36:35;;;;;;;20.00;4.35;;;10.30;99.90;;;;;;5019788;28;20037;-80
2024/02/06 07:39:00;;;;;;;13.65;4.43;;;10.20;99.90;;;;;;5037807;28;20049;-80
2024/02/06 07:41:26;;;;;;;18.50;5.30;;;10.30;99.90;;;;;;5019988;28;20045;-80
2024/02/06 07:43:52;;;;;;;16.80;4.03;;;10.20;99.90;;;;;;5019242;28;20041;-81
2024/02/06 07:46:18;;;;;;;21.35;3.95;;;10.10;99.90;;;;;;5019481;28;20042;-80
2024/02/06 07:48:44;;;;;;;17.75;3.80;;;10.10;99.90;;;;;;5037626;28;20033;-80
2024/02/06 07:51:11;;;;;;;16.90;4.43;;;10.20;99.90;;;;;;5002739;28;20513;-80
2024/02/06 07:53:36;;;;;;;15.57;4.45;;;10.20;99.90;;;;;;5037321;28;20041;-81
2024/02/06 07:56:04;;;;;;;16.88;4.40;;;10.20;99.90;;;;;;5037489;28;20081;-80
2024/02/06 07:58:30;;;;;;;20.77;5.35;;;10.20;99.90;;;;;;5036660;28;20435;-81
2024/02/06 08:00:56;;;;;;;15.13;4.03;;;10.20;99.90;;;;;;5032620;28;20041;-81
2024/02/06 08:03:22;;;;;;;18.60;4.25;;;10.20;99.90;;;;;;5045221;28;20046;-82
2024/02/06 08:05:47;;;;;;;15.40;3.20;;;10.10;99.90;;;;;;5034271;28;20037;-81
2024/02/06 08:08:13;;;;;;;15.93;4.80;;;10.20;99.90;;;;;;5041175;28;20037;-81
2024/02/06 08:10:39;;;;;;;16.05;4.25;;;10.00;99.90;;;;;;5044912;28;20040;-83
2024/02/06 08:13:04;;;;;;;14.75;3.50;;;10.10;99.90;;;;;;5010051;28;20041;-82
2024/02/06 08:15:30;;;;;;;17.30;4.35;;;10.10;99.90;;;;;;5024221;28;20072;-81
2024/02/06 08:17:55;;;;;;;19.88;5.65;;;10.10;99.90;;;;;;5008537;28;20051;-81
2024/02/06 08:20:21;;;;;;;16.73;3.58;;;10.20;99.90;;;;;;5022657;28;20037;-81
2024/02/06 08:22:49;;;;;;;12.55;3.03;;;10.20;99.90;;;;;;5042793;28;20038;-83
2024/02/06 08:25:22;;;;;;;13.70;3.47;;;10.20;99.90;;;;;;5021642;28;20453;-79
2024/02/06 08:27:48;;;;;;;21.40;4.03;;;10.30;99.90;;;;;;5040863;28;20037;-80
2024/02/06 08:30:14;;;;;;;15.77;3.17;;;10.30;99.90;;;;;;5040860;28;20037;-82
2024/02/06 08:32:39;;;;;;;12.23;3.10;;;10.40;99.90;;;;;;5023240;28;20069;-81
2024/02/06 08:35:05;;;;;;;14.43;2.97;;;10.40;99.90;;;;;;5022288;28;20096;-82
2024/02/06 08:37:31;;;;;;;19.00;3.70;;;10.50;99.90;;;;;;5020841;28;20120;-82
2024/02/06 08:39:59;;;;;;;14.10;3.25;;;10.50;99.90;;;;;;5005461;28;20072;-82
2024/02/06 08:42:25;;;;;;;20.58;4.43;;;10.50;99.90;;;;;;5037715;28;20038;-80
2024/02/06 08:44:50;;;;;;;15.80;4.13;;;10.50;99.90;;;;;;5037549;28;20451;-81
2024/02/06 08:47:16;;;;;;;18.23;3.65;;;10.60;99.90;;;;;;5019272;28;20037;-81
2024/02/06 08:49:42;;;;;;;19.80;3.92;;;10.70;99.90;;;;;;5038907;28;20056;-81
2024/02/06 08:52:08;;;;;;;25.35;4.55;;;10.60;99.90;;;;;;5023604;28;20041;-81
2024/02/06 08:54:34;;;;;;;17.42;4.10;;;10.60;99.90;;;;;;5020648;28;20037;-81
2024/02/06 08:56:59;;;;;;;15.85;3.70;;;10.70;99.90;;;;;;5038431;28;20044;-82
2024/02/06 08:59:25;;;;;;;15.00;4.90;;;10.70;99.90;;;;;;5022495;28;20464;-82
2024/02/06 09:01:50;;;;;;;17.55;4.10;;;10.70;99.90;;;;;;5021107;28;20097;-82
2024/02/06 09:04:16;;;;;;;15.63;4.53;;;10.70;99.90;;;;;;5038204;28;20063;-81
2024/02/06 09:06:42;;;;;;;19.38;4.90;;;10.70;99.90;;;;;;5037821;28;20033;-81
2024/02/06 09:09:09;;;;;;;18.33;4.88;;;10.80;99.90;;;;;;5020950;28;20068;-81
2024/02/06 09:11:34;;;;;;;14.40;4.03;;;10.90;99.90;;;;;;5038580;28;20041;-81
2024/02/06 09:14:00;;;;;;;15.45;3.65;;;10.90;99.90;;;;;;5021369;28;20030;-84
2024/02/06 09:16:26;;;;;;;27.20;5.82;;;11.00;99.90;;;;;;5019270;28;20524;-83
2024/02/06 09:18:52;;;;;;;20.10;4.85;;;10.90;99.90;;;;;;5022360;28;20037;-82
2024/02/06 09:21:19;;;;;;;14.07;3.85;;;10.90;99.90;;;;;;5022639;28;20050;-81
2024/02/06 09:23:45;;;;;;;17.45;3.85;;;10.90;99.90;;;;;;5038952;28;20497;-81
2024/02/06 09:26:12;;;;;;;17.35;3.72;;;10.90;99.90;;;;;;5038537;28;20096;-80
2024/02/06 09:28:38;;;;;;;18.17;4.70;;;10.90;99.90;;;;;;5018748;28;20040;-81
2024/02/06 09:31:04;;;;;;;16.63;4.28;;;11.00;99.90;;;;;;5003059;28;20049;-81
2024/02/06 09:33:30;;;;;;;19.02;4.32;;;11.00;99.90;;;;;;4998628;28;20033;-81
2024/02/06 09:35:56;;;;;;;14.32;4.63;;;11.00;99.90;;;;;;5019252;28;20047;-82
2024/02/06 09:38:22;;;;;;;23.10;4.30;;;11.00;99.90;;;;;;5001325;28;20045;-80
2024/02/06 09:40:48;;;;;;;15.40;4.10;;;11.10;99.90;;;;;;5036401;28;20045;-80
2024/02/06 09:43:15;;;;;;;26.83;5.25;;;11.10;99.90;;;;;;5018649;28;20045;-80
2024/02/06 09:45:41;;;;;;;12.98;4.38;;;11.00;99.90;;;;;;5019452;28;20046;-82
2024/02/06 09:48:07;;;;;;;14.45;3.58;;;11.10;99.90;;;;;;5017041;28;20045;-83
2024/02/06 09:50:34;;;;;;;20.88;3.75;;;11.10;99.90;;;;;;5020352;28;20440;-82
2024/02/06 09:53:02;;;;;;;20.50;3.70;;;11.20;99.90;;;;;;5019162;28;20521;-82
2024/02/06 09:55:30;;;;;;;21.17;5.13;;;11.10;99.90;;;;;;5019937;28;20492;-83
2024/02/06 09:57:57;;;;;;;21.00;4.07;;;11.10;99.90;;;;;;5004627;28;20041;-83
2024/02/06 10:00:24;;;;;;;18.58;3.92;;;11.00;99.90;;;;;;5021149;28;20045;-82
2024/02/06 10:02:55;;;;;;;13.68;4.68;;;11.20;99.90;;;;;;5018807;28;20049;-85
2024/02/06 10:05:25;;;;;;;16.70;3.83;;;11.10;99.90;;;;;;5019296;28;20049;-81
2024/02/06 10:07:51;;;;;;;16.20;4.10;;;11.10;99.90;;;;;;5037821;28;20038;-81
2024/02/06 10:10:19;;;;;;;13.52;4.50;;;11.30;99.90;;;;;;5037557;28;20069;-84
2024/02/06 10:12:44;;;;;;;12.60;4.25;;;11.30;99.90;;;;;;5002281;28;20041;-82
2024/02/06 10:15:18;;;;;;;16.00;4.32;;;11.30;99.90;;;;;;5018977;28;20097;-82
2024/02/06 10:17:44;;;;;;;13.40;4.30;;;11.30;99.90;;;;;;5043507;22;20196;-71
2024/02/06 10:20:10;;;;;;;15.30;4.30;;;11.20;99.90;;;;;;5030888;28;20069;-71
2024/02/06 10:22:41;;;;;;;21.42;4.55;;;11.20;99.90;;;;;;5033813;28;20132;-71
2024/02/06 10:25:10;;;;;;;16.10;3.70;;;11.30;99.90;;;;;;5034406;28;20099;-71
2024/02/06 10:27:36;;;;;;;15.50;4.30;;;11.20;99.90;;;;;;5033669;28;20029;-71
2024/02/06 10:30:03;;;;;;;15.10;4.15;;;11.20;99.90;;;;;;5015279;28;20413;-71
2024/02/06 10:32:39;;;;;;;16.38;3.30;;;11.20;99.90;;;;;;5015701;28;20076;-71
2024/02/06 10:35:06;;;;;;;15.57;4.22;;;11.30;99.90;;;;;;5015704;28;20049;-71
2024/02/06 10:37:36;;;;;;;12.70;4.13;;;11.30;99.90;;;;;;5015427;28;20046;-72
2024/02/06 10:40:07;;;;;;;24.98;4.93;;;11.30;99.90;;;;;;4981581;28;20534;-71
2024/02/06 10:42:33;;;;;;;21.38;4.57;;;11.30;99.90;;;;;;4997195;28;20129;-71
2024/02/06 10:44:59;;;;;;;19.95;4.18;;;11.30;99.90;;;;;;4997676;28;20041;-71
2024/02/06 10:47:25;;;;;;;19.13;4.72;;;11.30;99.90;;;;;;5015458;28;20045;-71
2024/02/06 10:50:05;;;;;;;23.85;6.45;;;11.40;99.90;;;;;;5015260;28;20038;-71
2024/02/06 10:52:31;;;;;;;13.48;4.30;;;11.40;99.90;;;;;;5015285;28;20041;-71
2024/02/06 10:54:57;;;;;;;29.25;4.93;;;11.40;99.90;;;;;;5015128;28;20162;-71
2024/02/06 10:57:32;;;;;;;18.55;3.85;;;11.40;99.90;;;;;;4997712;28;20557;-71
2024/02/06 11:00:15;;;;;;;17.50;4.65;;;11.30;99.90;;;;;;5015186;28;20037;-71
2024/02/06 11:02:43;;;;;;;21.38;5.03;;;11.40;99.90;;;;;;5015162;28;20397;-72
2024/02/06 11:05:16;;;;;;;24.15;4.45;;;11.40;99.90;;;;;;5014488;28;20532;-72
2024/02/06 11:07:56;;;;;;;17.23;4.53;;;11.40;99.90;;;;;;5014202;28;20050;-71
2024/02/06 11:10:30;;;;;;;18.55;3.42;;;11.40;99.90;;;;;;4997115;28;20113;-71
2024/02/06 11:13:02;;;;;;;14.77;3.75;;;11.50;99.90;;;;;;5014956;28;20042;-71
2024/02/06 11:15:28;;;;;;;14.05;4.07;;;11.50;99.90;;;;;;5014915;28;20095;-71
2024/02/06 11:17:54;;;;;;;13.57;3.80;;;11.50;99.90;;;;;;5014480;28;20057;-71
2024/02/06 11:20:25;;;;;;;13.57;4.45;;;11.60;99.90;;;;;;4997021;28;20042;-71
2024/02/06 11:22:53;;;;;;;16.42;4.68;;;11.60;99.90;;;;;;5014938;28;20042;-71
2024/02/06 11:25:20;;;;;;;24.77;4.93;;;11.70;99.90;;;;;;5014768;28;20037;-71
2024/02/06 11:27:47;;;;;;;17.17;5.15;;;11.60;99.90;;;;;;4996851;28;20041;-71
2024/02/06 11:30:15;;;;;;;15.48;4.32;;;11.70;99.90;;;;;;5014395;28;20580;-71
2024/02/06 11:32:41;;;;;;;15.55;4.03;;;11.70;99.90;;;;;;5013628;28;20042;-71
2024/02/06 11:35:07;;;;;;;25.17;3.92;;;11.70;99.90;;;;;;4996933;28;20044;-71
2024/02/06 11:37:32;;;;;;;19.70;5.53;;;11.70;99.90;;;;;;5014241;28;20048;-71
2024/02/06 11:40:10;;;;;;;19.30;4.75;;;11.70;99.90;;;;;;5014235;28;20076;-71
2024/02/06 11:42:37;;;;;;;19.50;5.07;;;11.70;99.90;;;;;;5014260;28;20406;-71
2024/02/06 11:45:10;;;;;;;26.58;5.15;;;11.70;99.90;;;;;;5014204;28;20079;-71
2024/02/06 11:47:38;;;;;;;26.10;5.50;;;11.70;99.90;;;;;;5013849;28;20037;-71
2024/02/06 11:50:08;;;;;;;18.50;4.80;;;11.60;99.90;;;;;;5013721;28;20088;-71
2024/02/06 11:52:34;;;;;;;14.27;4.20;;;11.70;99.90;;;;;;5012045;28;20046;-71
2024/02/06 11:54:59;;;;;;;24.00;4.10;;;11.70;99.90;;;;;;5014058;28;20557;-71
2024/02/06 11:57:25;;;;;;;30.00;5.10;;;11.80;99.90;;;;;;5013979;28;20069;-71
2024/02/06 11:59:51;;;;;;;17.05;4.38;;;11.80;99.90;;;;;;5013702;28;20034;-72
2024/02/06 12:02:17;;;;;;;15.05;4.55;;;11.80;99.90;;;;;;5014265;28;20113;-71
2024/02/06 12:04:42;;;;;;;18.33;4.82;;;11.80;99.90;;;;;;5013944;28;20049;-72
2024/02/06 12:07:08;;;;;;;19.75;4.05;;;11.80;99.90;;;;;;5013981;28;20092;-71
2024/02/06 12:09:40;;;;;;;19.75;5.80;;;11.80;99.90;;;;;;5013556;28;20033;-72
2024/02/06 12:12:07;;;;;;;22.25;5.40;;;11.80;99.90;;;;;;5013768;28;20042;-71
2024/02/06 12:14:33;;;;;;;26.05;4.90;;;11.90;99.90;;;;;;5013975;28;20124;-71
2024/02/06 12:17:00;;;;;;;17.27;4.55;;;11.90;99.90;;;;;;5013734;28;20049;-72
2024/02/06 12:19:26;;;;;;;22.08;4.63;;;11.90;99.90;;;;;;5012643;28;20095;-72
2024/02/06 12:22:02;;;;;;;23.77;5.47;;;11.80;99.90;;;;;;5013246;28;20116;-72
2024/02/06 12:24:27;;;;;;;18.75;5.15;;;11.90;99.90;;;;;;5012992;28;20041;-72
2024/02/06 12:27:06;;;;;;;20.15;4.88;;;11.90;99.90;;;;;;5013168;28;20038;-72
2024/02/06 12:29:51;;;;;;;12.13;3.30;;;11.90;99.90;;;;;;5012540;28;20129;-72
2024/02/06 12:32:17;;;;;;;21.77;4.18;;;11.90;99.90;;;;;;4993697;28;20117;-72
2024/02/06 12:34:43;;;;;;;18.48;5.40;;;11.80;99.90;;;;;;5012846;28;20095;-72